createdAt,value
2022-11-05T00:00:50.370Z,987.20
2022-11-05T00:01:50.406Z,987.14
2022-11-05T00:02:50.341Z,987.21
2022-11-05T00:03:51.339Z,987.22
2022-11-05T00:04:50.330Z,987.13
2022-11-05T00:05:50.328Z,987.18
2022-11-05T00:06:50.408Z,987.21
2022-11-05T00:07:50.291Z,987.14
2022-11-05T00:08:50.270Z,987.12
2022-11-05T00:09:50.280Z,987.14
2022-11-05T00:10:50.268Z,987.19
2022-11-05T00:11:50.304Z,987.20
2022-11-05T00:12:50.268Z,987.21
2022-11-05T00:13:50.273Z,987.26
2022-11-05T00:14:51.056Z,987.22
2022-11-05T00:15:50.250Z,987.26
2022-11-05T00:16:50.242Z,987.27
2022-11-05T00:17:50.258Z,987.26
2022-11-05T00:18:50.224Z,987.27
2022-11-05T00:19:50.221Z,987.30
2022-11-05T00:20:50.230Z,987.33
2022-11-05T00:21:50.255Z,987.29
2022-11-05T00:22:50.244Z,987.39
2022-11-05T00:23:50.274Z,987.38
2022-11-05T00:24:50.191Z,987.37
2022-11-05T00:25:50.170Z,987.32
2022-11-05T00:26:50.183Z,987.44
2022-11-05T00:27:50.172Z,987.40
2022-11-05T00:28:50.401Z,987.40
2022-11-05T00:29:50.153Z,987.39
2022-11-05T00:30:50.136Z,987.36
2022-11-05T00:31:50.130Z,987.41
2022-11-05T00:32:50.157Z,987.38
2022-11-05T00:33:50.181Z,987.42
2022-11-05T00:34:50.127Z,987.41
2022-11-05T00:35:50.138Z,987.46
2022-11-05T00:36:50.098Z,987.43
2022-11-05T00:37:50.797Z,987.47
2022-11-05T00:38:51.111Z,987.43
2022-11-05T00:39:50.142Z,987.46
2022-11-05T00:40:50.093Z,987.46
2022-11-05T00:41:50.110Z,987.52
2022-11-05T00:42:50.065Z,987.50
2022-11-05T00:43:50.075Z,987.53
2022-11-05T00:44:50.182Z,987.53
2022-11-05T00:45:50.085Z,987.61
2022-11-05T00:46:50.047Z,987.59
2022-11-05T00:47:50.061Z,987.55
2022-11-05T00:48:50.036Z,987.59
2022-11-05T00:49:50.043Z,987.67
2022-11-05T00:50:50.026Z,987.64
2022-11-05T00:51:50.631Z,987.67
2022-11-05T00:52:50.010Z,987.67
2022-11-05T00:53:50.008Z,987.69
2022-11-05T00:54:50.011Z,987.67
2022-11-05T00:55:50.111Z,987.69
2022-11-05T00:56:49.985Z,987.69
2022-11-05T00:57:49.988Z,987.69
2022-11-05T00:58:49.959Z,987.72
2022-11-05T00:59:49.958Z,987.72
2022-11-05T01:00:50.003Z,987.68
2022-11-05T01:01:50.047Z,987.72
2022-11-05T01:02:50.091Z,987.71
2022-11-05T01:03:51.834Z,987.65
2022-11-05T01:04:50.908Z,987.74
2022-11-05T01:05:49.933Z,987.69
2022-11-05T01:06:50.040Z,987.65
2022-11-05T01:07:49.909Z,987.68
2022-11-05T01:08:49.916Z,987.71
2022-11-05T01:09:49.908Z,987.65
2022-11-05T01:10:49.883Z,987.67
2022-11-05T01:11:51.003Z,987.70
2022-11-05T01:12:49.881Z,987.74
2022-11-05T01:13:49.861Z,987.78
2022-11-05T01:14:49.883Z,987.76
2022-11-05T01:15:49.864Z,987.85
2022-11-05T01:16:49.870Z,987.81
2022-11-05T01:17:49.891Z,987.81
2022-11-05T01:18:49.838Z,987.81
2022-11-05T01:19:49.840Z,987.77
2022-11-05T01:20:49.832Z,987.81
2022-11-05T01:21:49.830Z,987.78
2022-11-05T01:22:49.934Z,987.80
2022-11-05T01:23:49.802Z,987.86
2022-11-05T01:24:49.805Z,987.85
2022-11-05T01:25:49.844Z,987.88
2022-11-05T01:26:49.800Z,987.87
2022-11-05T01:27:49.790Z,987.89
2022-11-05T01:28:49.897Z,987.89
2022-11-05T01:29:49.772Z,987.90
2022-11-05T01:30:49.805Z,987.87
2022-11-05T01:31:49.757Z,987.90
2022-11-05T01:32:49.760Z,987.95
2022-11-05T01:33:49.871Z,987.92
2022-11-05T01:34:49.776Z,987.98
2022-11-05T01:35:49.734Z,987.97
2022-11-05T01:36:49.768Z,987.97
2022-11-05T01:37:49.728Z,987.97
2022-11-05T01:38:49.740Z,987.97
2022-11-05T01:39:49.737Z,987.93
2022-11-05T01:40:49.772Z,988.02
2022-11-05T01:41:49.743Z,988.06
2022-11-05T01:42:49.716Z,988.02
2022-11-05T01:43:49.685Z,988.06
2022-11-05T01:44:49.793Z,988.03
2022-11-05T01:45:49.673Z,988.06
2022-11-05T01:46:49.701Z,987.99
2022-11-05T01:47:49.650Z,988.06
2022-11-05T01:48:49.659Z,988.15
2022-11-05T01:49:49.642Z,988.05
2022-11-05T01:50:49.661Z,988.09
2022-11-05T01:51:49.641Z,988.13
2022-11-05T01:52:49.644Z,988.17
2022-11-05T01:53:49.619Z,988.14
2022-11-05T01:54:49.631Z,988.15
2022-11-05T01:55:49.724Z,988.12
2022-11-05T01:56:49.625Z,988.23
2022-11-05T01:57:49.616Z,988.18
2022-11-05T01:58:49.586Z,988.22
2022-11-05T01:59:49.596Z,988.15
2022-11-05T02:00:49.577Z,988.20
2022-11-05T02:01:49.712Z,988.10
2022-11-05T02:02:49.783Z,988.18
2022-11-05T02:03:49.547Z,988.14
2022-11-05T02:04:50.547Z,988.17
2022-11-05T02:05:49.544Z,988.15
2022-11-05T02:06:49.654Z,988.07
2022-11-05T02:07:49.633Z,988.13
2022-11-05T02:08:49.516Z,988.07
2022-11-05T02:09:49.525Z,988.15
2022-11-05T02:10:49.529Z,988.09
2022-11-05T02:11:49.519Z,988.06
2022-11-05T02:12:49.519Z,988.14
2022-11-05T02:13:49.491Z,988.14
2022-11-05T02:14:49.500Z,988.18
2022-11-05T02:15:49.469Z,988.14
2022-11-05T02:16:49.456Z,988.19
2022-11-05T02:17:50.273Z,988.18
2022-11-05T02:18:49.478Z,988.19
2022-11-05T02:19:49.470Z,988.15
2022-11-05T02:20:52.222Z,988.16
2022-11-05T02:21:49.444Z,988.27
2022-11-05T02:22:49.432Z,988.22
2022-11-05T02:23:49.602Z,988.27
2022-11-05T02:24:49.422Z,988.27
2022-11-05T02:25:49.411Z,988.28
2022-11-05T02:26:49.403Z,988.32
2022-11-05T02:27:49.405Z,988.37
2022-11-05T02:28:50.422Z,988.32
2022-11-05T02:29:49.382Z,988.33
2022-11-05T02:30:49.395Z,988.31
2022-11-05T02:31:49.391Z,988.32
2022-11-05T02:32:49.364Z,988.32
2022-11-05T02:33:49.378Z,988.33
2022-11-05T02:34:49.366Z,988.34
2022-11-05T02:35:49.364Z,988.40
2022-11-05T02:36:49.351Z,988.37
2022-11-05T02:37:49.351Z,988.36
2022-11-05T02:38:49.368Z,988.33
2022-11-05T02:39:49.349Z,988.34
2022-11-05T02:40:49.348Z,988.34
2022-11-05T02:41:49.311Z,988.41
2022-11-05T02:42:49.304Z,988.37
2022-11-05T02:43:49.313Z,988.47
2022-11-05T02:44:49.372Z,988.49
2022-11-05T02:45:49.299Z,988.54
2022-11-05T02:46:49.302Z,988.51
2022-11-05T02:47:49.290Z,988.57
2022-11-05T02:48:49.293Z,988.54
2022-11-05T02:49:49.295Z,988.51
2022-11-05T02:50:49.266Z,988.52
2022-11-05T02:51:49.288Z,988.47
2022-11-05T02:52:49.320Z,988.45
2022-11-05T02:53:49.282Z,988.42
2022-11-05T02:54:49.254Z,988.42
2022-11-05T02:55:49.228Z,988.47
2022-11-05T02:56:49.229Z,988.45
2022-11-05T02:57:49.235Z,988.52
2022-11-05T02:58:49.317Z,988.41
2022-11-05T02:59:49.297Z,988.51
2022-11-05T03:00:49.205Z,988.45
2022-11-05T03:01:49.359Z,988.40
2022-11-05T03:02:49.353Z,988.40
2022-11-05T03:03:49.288Z,988.42
2022-11-05T03:04:49.194Z,988.48
2022-11-05T03:05:49.171Z,988.43
2022-11-05T03:06:49.170Z,988.48
2022-11-05T03:07:49.177Z,988.42
2022-11-05T03:08:49.187Z,988.46
2022-11-05T03:09:49.158Z,988.51
2022-11-05T03:10:49.135Z,988.49
2022-11-05T03:11:49.130Z,988.45
2022-11-05T03:12:49.130Z,988.52
2022-11-05T03:13:49.110Z,988.49
2022-11-05T03:14:49.163Z,988.49
2022-11-05T03:15:49.125Z,988.55
2022-11-05T03:16:49.106Z,988.51
2022-11-05T03:17:49.112Z,988.47
2022-11-05T03:18:49.101Z,988.50
2022-11-05T03:19:49.144Z,988.49
2022-11-05T03:20:49.082Z,988.48
2022-11-05T03:21:49.123Z,988.48
2022-11-05T03:22:49.591Z,988.59
2022-11-05T03:23:49.078Z,988.61
2022-11-05T03:24:49.044Z,988.58
2022-11-05T03:25:49.153Z,988.55
2022-11-05T03:26:49.054Z,988.55
2022-11-05T03:27:49.036Z,988.62
2022-11-05T03:28:49.033Z,988.58
2022-11-05T03:29:49.028Z,988.59
2022-11-05T03:30:49.047Z,988.58
2022-11-05T03:31:49.023Z,988.66
2022-11-05T03:32:49.009Z,988.64
2022-11-05T03:33:49.015Z,988.60
2022-11-05T03:34:48.998Z,988.69
2022-11-05T03:35:48.982Z,988.60
2022-11-05T03:36:49.009Z,988.67
2022-11-05T03:37:48.984Z,988.64
2022-11-05T03:38:48.976Z,988.71
2022-11-05T03:39:48.964Z,988.76
2022-11-05T03:40:48.963Z,988.69
2022-11-05T03:41:48.992Z,988.76
2022-11-05T03:42:48.949Z,988.72
2022-11-05T03:43:48.932Z,988.75
2022-11-05T03:44:48.954Z,988.80
2022-11-05T03:45:48.923Z,988.79
2022-11-05T03:46:48.925Z,988.74
2022-11-05T03:47:48.929Z,988.83
2022-11-05T03:48:48.929Z,988.88
2022-11-05T03:49:48.920Z,988.81
2022-11-05T03:50:48.909Z,988.91
2022-11-05T03:51:48.881Z,988.92
2022-11-05T03:52:48.917Z,988.92
2022-11-05T03:53:48.879Z,988.91
2022-11-05T03:54:48.874Z,988.93
2022-11-05T03:55:48.892Z,988.90
2022-11-05T03:56:48.855Z,988.93
2022-11-05T03:57:48.860Z,988.96
2022-11-05T03:58:48.964Z,988.99
2022-11-05T03:59:48.842Z,988.99
2022-11-05T04:00:48.825Z,988.97
2022-11-05T04:01:48.945Z,988.98
2022-11-05T04:02:48.950Z,989.06
2022-11-05T04:03:48.863Z,989.04
2022-11-05T04:04:48.817Z,989.05
2022-11-05T04:05:48.801Z,989.10
2022-11-05T04:06:48.795Z,989.07
2022-11-05T04:07:48.767Z,989.02
2022-11-05T04:08:48.774Z,989.06
2022-11-05T04:09:48.797Z,989.13
2022-11-05T04:10:48.781Z,989.14
2022-11-05T04:11:48.787Z,989.06
2022-11-05T04:12:48.764Z,989.10
2022-11-05T04:13:48.768Z,989.12
2022-11-05T04:14:48.768Z,989.08
2022-11-05T04:15:48.735Z,989.11
2022-11-05T04:16:48.716Z,989.22
2022-11-05T04:17:48.728Z,989.23
2022-11-05T04:18:48.733Z,989.21
2022-11-05T04:19:48.732Z,989.22
2022-11-05T04:20:48.739Z,989.22
2022-11-05T04:21:48.703Z,989.19
2022-11-05T04:22:48.693Z,989.27
2022-11-05T04:23:48.668Z,989.25
2022-11-05T04:24:48.667Z,989.23
2022-11-05T04:25:48.772Z,989.28
2022-11-05T04:26:48.655Z,989.29
2022-11-05T04:27:48.670Z,989.30
2022-11-05T04:28:48.630Z,989.31
2022-11-05T04:29:48.654Z,989.28
2022-11-05T04:30:48.635Z,989.36
2022-11-05T04:31:48.652Z,989.32
2022-11-05T04:32:48.621Z,989.29
2022-11-05T04:33:48.672Z,989.43
2022-11-05T04:34:48.620Z,989.42
2022-11-05T04:35:48.594Z,989.50
2022-11-05T04:36:48.719Z,989.33
2022-11-05T04:37:48.600Z,989.41
2022-11-05T04:38:48.595Z,989.44
2022-11-05T04:39:48.570Z,989.41
2022-11-05T04:40:48.569Z,989.49
2022-11-05T04:41:48.581Z,989.51
2022-11-05T04:42:48.652Z,989.48
2022-11-05T04:43:48.545Z,989.48
2022-11-05T04:44:48.548Z,989.55
2022-11-05T04:45:48.546Z,989.57
2022-11-05T04:46:48.532Z,989.56
2022-11-05T04:47:48.557Z,989.59
2022-11-05T04:48:48.519Z,989.56
2022-11-05T04:49:48.525Z,989.56
2022-11-05T04:50:48.535Z,989.57
2022-11-05T04:51:48.504Z,989.60
2022-11-05T04:52:48.512Z,989.58
2022-11-05T04:53:48.554Z,989.57
2022-11-05T04:54:48.496Z,989.62
2022-11-05T04:55:48.482Z,989.58
2022-11-05T04:56:48.479Z,989.56
2022-11-05T04:57:48.464Z,989.61
2022-11-05T04:58:48.495Z,989.61
2022-11-05T04:59:48.465Z,989.59
2022-11-05T05:00:48.477Z,989.58
2022-11-05T05:01:48.530Z,989.56
2022-11-05T05:02:48.434Z,989.53
2022-11-05T05:03:48.457Z,989.55
2022-11-05T05:04:48.555Z,989.56
2022-11-05T05:05:48.410Z,989.53
2022-11-05T05:06:48.423Z,989.52
2022-11-05T05:07:48.410Z,989.45
2022-11-05T05:08:48.391Z,989.45
2022-11-05T05:09:48.432Z,989.47
2022-11-05T05:10:48.398Z,989.45
2022-11-05T05:11:48.386Z,989.46
2022-11-05T05:12:48.376Z,989.46
2022-11-05T05:13:48.401Z,989.51
2022-11-05T05:14:48.395Z,989.49
2022-11-05T05:15:48.450Z,989.56
2022-11-05T05:16:49.363Z,989.55
2022-11-05T05:17:48.342Z,989.50
2022-11-05T05:18:48.435Z,989.50
2022-11-05T05:19:48.376Z,989.53
2022-11-05T05:20:48.352Z,989.46
2022-11-05T05:21:48.331Z,989.49
2022-11-05T05:22:48.328Z,989.49
2022-11-05T05:23:48.337Z,989.45
2022-11-05T05:24:52.521Z,989.51
2022-11-05T05:25:49.340Z,989.47
2022-11-05T05:26:48.301Z,989.52
2022-11-05T05:27:48.290Z,989.52
2022-11-05T05:28:48.343Z,989.58
2022-11-05T05:29:48.289Z,989.58
2022-11-05T05:30:48.246Z,989.61
2022-11-05T05:31:48.271Z,989.63
2022-11-05T05:32:48.235Z,989.68
2022-11-05T05:33:48.275Z,989.67
2022-11-05T05:34:48.234Z,989.68
2022-11-05T05:35:48.768Z,989.67
2022-11-05T05:36:48.335Z,989.70
2022-11-05T05:37:48.223Z,989.68
2022-11-05T05:38:48.219Z,989.75
2022-11-05T05:39:48.198Z,989.74
2022-11-05T05:40:48.194Z,989.71
2022-11-05T05:41:48.204Z,989.76
2022-11-05T05:42:48.203Z,989.72
2022-11-05T05:43:48.203Z,989.71
2022-11-05T05:44:48.177Z,989.81
2022-11-05T05:45:48.184Z,989.79
2022-11-05T05:46:48.198Z,989.78
2022-11-05T05:47:48.874Z,989.80
2022-11-05T05:48:48.143Z,989.82
2022-11-05T05:49:48.142Z,989.93
2022-11-05T05:50:48.128Z,989.93
2022-11-05T05:51:48.121Z,989.89
2022-11-05T05:52:48.141Z,989.90
2022-11-05T05:53:48.267Z,989.87
2022-11-05T05:54:48.139Z,989.94
2022-11-05T05:55:48.101Z,989.92
2022-11-05T05:56:48.101Z,989.96
2022-11-05T05:57:48.090Z,989.89
2022-11-05T05:58:48.187Z,989.97
2022-11-05T05:59:48.070Z,989.91
2022-11-05T06:00:48.066Z,989.91
2022-11-05T06:01:48.151Z,989.93
2022-11-05T06:02:48.730Z,989.93
2022-11-05T06:03:48.068Z,989.90
2022-11-05T06:04:48.170Z,989.96
2022-11-05T06:05:48.075Z,990.04
2022-11-05T06:06:48.048Z,990.05
2022-11-05T06:07:48.016Z,990.05
2022-11-05T06:08:48.015Z,990.07
2022-11-05T06:09:48.039Z,990.11
2022-11-05T06:10:48.051Z,990.12
2022-11-05T06:11:48.007Z,990.14
2022-11-05T06:12:47.988Z,990.16
2022-11-05T06:13:47.997Z,990.12
2022-11-05T06:14:48.014Z,990.12
2022-11-05T06:15:48.856Z,990.11
2022-11-05T06:16:47.996Z,990.09
2022-11-05T06:17:47.973Z,990.18
2022-11-05T06:18:47.967Z,990.17
2022-11-05T06:19:47.953Z,990.17
2022-11-05T06:20:47.952Z,990.19
2022-11-05T06:21:48.954Z,990.21
2022-11-05T06:22:47.963Z,990.25
2022-11-05T06:23:47.920Z,990.23
2022-11-05T06:24:47.929Z,990.24
2022-11-05T06:25:47.923Z,990.23
2022-11-05T06:26:47.972Z,990.31
2022-11-05T06:27:47.950Z,990.31
2022-11-05T06:28:47.903Z,990.30
2022-11-05T06:29:47.911Z,990.26
2022-11-05T06:30:47.893Z,990.31
2022-11-05T06:31:48.013Z,990.24
2022-11-05T06:32:47.927Z,990.23
2022-11-05T06:33:47.903Z,990.28
2022-11-05T06:34:47.864Z,990.26
2022-11-05T06:35:47.875Z,990.32
2022-11-05T06:36:47.861Z,990.29
2022-11-05T06:37:47.883Z,990.27
2022-11-05T06:38:47.847Z,990.33
2022-11-05T06:39:47.828Z,990.41
2022-11-05T06:40:47.848Z,990.45
2022-11-05T06:42:16.455Z,990.34
2022-11-05T06:42:48.845Z,990.39
2022-11-05T06:43:47.811Z,990.40
2022-11-05T06:44:47.830Z,990.34
2022-11-05T06:45:47.798Z,990.41
2022-11-05T06:46:48.869Z,990.40
2022-11-05T06:47:48.784Z,990.43
2022-11-05T06:48:48.819Z,990.46
2022-11-05T06:49:47.784Z,990.47
2022-11-05T06:50:47.778Z,990.44
2022-11-05T06:51:47.750Z,990.45
2022-11-05T06:52:47.762Z,990.45
2022-11-05T06:53:47.778Z,990.48
2022-11-05T06:54:47.768Z,990.52
2022-11-05T06:55:47.752Z,990.57
2022-11-05T06:56:47.731Z,990.59
2022-11-05T06:57:47.741Z,990.64
2022-11-05T06:58:47.754Z,990.67
2022-11-05T06:59:47.737Z,990.66
2022-11-05T07:00:47.767Z,990.70
2022-11-05T07:01:47.832Z,990.69
2022-11-05T07:02:47.693Z,990.74
2022-11-05T07:03:47.813Z,990.72
2022-11-05T07:04:47.717Z,990.81
2022-11-05T07:05:47.685Z,990.79
2022-11-05T07:06:47.676Z,990.78
2022-11-05T07:07:47.663Z,990.83
2022-11-05T07:08:47.686Z,990.81
2022-11-05T07:09:47.700Z,990.84
2022-11-05T07:10:47.643Z,990.89
2022-11-05T07:11:47.644Z,990.93
2022-11-05T07:12:47.657Z,990.87
2022-11-05T07:13:47.653Z,990.86
2022-11-05T07:14:47.626Z,990.90
2022-11-05T07:15:47.628Z,990.89
2022-11-05T07:16:47.627Z,990.96
2022-11-05T07:17:47.608Z,990.90
2022-11-05T07:18:47.626Z,990.99
2022-11-05T07:19:47.628Z,991.03
2022-11-05T07:20:47.605Z,991.05
2022-11-05T07:21:47.589Z,991.05
2022-11-05T07:22:47.568Z,991.04
2022-11-05T07:23:47.608Z,991.02
2022-11-05T07:24:47.591Z,991.03
2022-11-05T07:25:47.576Z,991.05
2022-11-05T07:26:47.547Z,991.06
2022-11-05T07:27:47.558Z,991.04
2022-11-05T07:28:47.561Z,991.01
2022-11-05T07:29:47.557Z,991.05
2022-11-05T07:30:47.532Z,991.08
2022-11-05T07:31:47.521Z,991.02
2022-11-05T07:32:47.517Z,991.03
2022-11-05T07:33:47.523Z,991.10
2022-11-05T07:34:47.515Z,991.13
2022-11-05T07:35:47.511Z,991.11
2022-11-05T07:36:47.521Z,991.14
2022-11-05T07:37:47.499Z,991.17
2022-11-05T07:38:47.537Z,991.14
2022-11-05T07:39:47.506Z,991.26
2022-11-05T07:40:47.479Z,991.18
2022-11-05T07:41:47.478Z,991.26
2022-11-05T07:42:47.471Z,991.22
2022-11-05T07:43:47.468Z,991.28
2022-11-05T07:44:47.525Z,991.27
2022-11-05T07:45:47.462Z,991.27
2022-11-05T07:46:47.432Z,991.23
2022-11-05T07:47:47.442Z,991.28
2022-11-05T07:48:47.451Z,991.28
2022-11-05T07:49:47.436Z,991.33
2022-11-05T07:50:47.427Z,991.23
2022-11-05T07:51:47.404Z,991.30
2022-11-05T07:52:47.448Z,991.34
2022-11-05T07:53:47.411Z,991.34
2022-11-05T07:54:47.438Z,991.33
2022-11-05T07:55:47.375Z,991.31
2022-11-05T07:56:47.373Z,991.40
2022-11-05T07:57:47.361Z,991.44
2022-11-05T07:58:47.402Z,991.43
2022-11-05T07:59:47.383Z,991.33
2022-11-05T08:00:47.467Z,991.40
2022-11-05T08:01:47.513Z,991.41
2022-11-05T08:02:47.617Z,991.45
2022-11-05T08:03:47.859Z,991.43
2022-11-05T08:04:47.370Z,991.45
2022-11-05T08:05:47.325Z,991.50
2022-11-05T08:06:47.293Z,991.51
2022-11-05T08:07:47.299Z,991.57
2022-11-05T08:08:47.318Z,991.53
2022-11-05T08:09:47.314Z,991.59
2022-11-05T08:10:47.282Z,991.64
2022-11-05T08:11:47.304Z,991.60
2022-11-05T08:12:47.282Z,991.60
2022-11-05T08:13:47.278Z,991.70
2022-11-05T08:14:47.275Z,991.70
2022-11-05T08:15:47.255Z,991.67
2022-11-05T08:16:47.283Z,991.68
2022-11-05T08:17:47.255Z,991.72
2022-11-05T08:18:47.265Z,991.77
2022-11-05T08:19:47.334Z,991.75
2022-11-05T08:20:47.248Z,991.79
2022-11-05T08:21:47.227Z,991.81
2022-11-05T08:22:47.218Z,991.76
2022-11-05T08:23:47.228Z,991.83
2022-11-05T08:24:47.285Z,991.83
2022-11-05T08:25:47.207Z,991.82
2022-11-05T08:26:47.213Z,991.81
2022-11-05T08:27:47.199Z,991.88
2022-11-05T08:28:47.201Z,991.81
2022-11-05T08:29:47.340Z,991.83
2022-11-05T08:30:47.196Z,991.81
2022-11-05T08:31:47.162Z,991.90
2022-11-05T08:32:48.192Z,991.91
2022-11-05T08:33:47.185Z,991.88
2022-11-05T08:34:47.189Z,991.84
2022-11-05T08:35:47.212Z,991.90
2022-11-05T08:36:47.144Z,991.94
2022-11-05T08:37:47.235Z,991.87
2022-11-05T08:38:47.174Z,991.86
2022-11-05T08:39:47.162Z,991.88
2022-11-05T08:40:47.134Z,991.83
2022-11-05T08:41:47.156Z,991.76
2022-11-05T08:42:47.102Z,991.85
2022-11-05T08:43:47.115Z,991.81
2022-11-05T08:44:47.102Z,991.79
2022-11-05T08:45:47.208Z,991.83
2022-11-05T08:46:47.092Z,991.82
2022-11-05T08:47:47.075Z,991.81
2022-11-05T08:48:47.108Z,991.89
2022-11-05T08:49:47.062Z,991.79
2022-11-05T08:50:47.084Z,991.94
2022-11-05T08:51:47.073Z,991.84
2022-11-05T08:52:47.057Z,991.80
2022-11-05T08:53:47.060Z,991.88
2022-11-05T08:54:47.057Z,991.90
2022-11-05T08:55:47.047Z,991.90
2022-11-05T08:56:47.152Z,991.91
2022-11-05T08:57:47.011Z,991.89
2022-11-05T08:58:47.018Z,991.90
2022-11-05T08:59:47.031Z,991.90
2022-11-05T09:00:47.061Z,991.81
2022-11-05T09:01:47.294Z,991.87
2022-11-05T09:02:46.992Z,991.86
2022-11-05T09:03:46.995Z,991.93
2022-11-05T09:04:46.991Z,991.84
2022-11-05T09:05:46.985Z,991.84
2022-11-05T09:06:46.980Z,991.98
2022-11-05T09:07:46.990Z,991.90
2022-11-05T09:08:47.021Z,991.91
2022-11-05T09:09:46.936Z,991.95
2022-11-05T09:10:46.951Z,992.09
2022-11-05T09:12:10.690Z,991.99
2022-11-05T09:12:48.983Z,992.07
2022-11-05T09:13:46.936Z,992.03
2022-11-05T09:14:46.946Z,991.94
2022-11-05T09:15:46.930Z,992.04
2022-11-05T09:16:46.923Z,992.09
2022-11-05T09:17:46.930Z,992.02
2022-11-05T09:18:46.928Z,992.11
2022-11-05T09:19:46.940Z,992.10
2022-11-05T09:20:46.911Z,992.13
2022-11-05T09:21:46.887Z,992.12
2022-11-05T09:22:46.887Z,992.11
2022-11-05T09:23:46.896Z,992.14
2022-11-05T09:24:46.860Z,992.16
2022-11-05T09:25:46.892Z,992.22
2022-11-05T09:26:46.844Z,992.25
2022-11-05T09:27:46.903Z,992.23
2022-11-05T09:28:46.904Z,992.24
2022-11-05T09:29:46.839Z,992.21
2022-11-05T09:30:46.866Z,992.26
2022-11-05T09:31:46.883Z,992.22
2022-11-05T09:32:46.843Z,992.30
2022-11-05T09:33:46.871Z,992.33
2022-11-05T09:34:46.854Z,992.34
2022-11-05T09:35:46.836Z,992.33
2022-11-05T09:36:46.817Z,992.42
2022-11-05T09:37:46.818Z,992.30
2022-11-05T09:38:46.885Z,992.31
2022-11-05T09:39:46.814Z,992.35
2022-11-05T09:40:46.834Z,992.39
2022-11-05T09:41:46.780Z,992.34
2022-11-05T09:42:46.842Z,992.23
2022-11-05T09:43:46.882Z,992.18
2022-11-05T09:44:47.751Z,992.17
2022-11-05T09:45:46.767Z,992.10
2022-11-05T09:46:46.727Z,992.27
2022-11-05T09:47:46.800Z,992.20
2022-11-05T09:48:46.753Z,992.31
2022-11-05T09:49:46.741Z,992.31
2022-11-05T09:50:46.733Z,992.33
2022-11-05T09:51:46.778Z,992.38
2022-11-05T09:52:46.751Z,992.45
2022-11-05T09:53:46.719Z,992.22
2022-11-05T09:54:46.693Z,992.34
2022-11-05T09:55:46.707Z,992.36
2022-11-05T09:56:46.694Z,992.36
2022-11-05T09:57:46.706Z,992.35
2022-11-05T09:58:46.763Z,992.36
2022-11-05T09:59:46.768Z,992.38
2022-11-05T10:00:46.763Z,992.40
2022-11-05T10:01:46.768Z,992.38
2022-11-05T10:02:46.686Z,992.43
2022-11-05T10:03:46.684Z,992.41
2022-11-05T10:04:46.710Z,992.43
2022-11-05T10:05:46.719Z,992.44
2022-11-05T10:06:46.654Z,992.36
2022-11-05T10:07:46.641Z,992.32
2022-11-05T10:08:46.674Z,992.34
2022-11-05T10:09:46.643Z,992.41
2022-11-05T10:10:46.633Z,992.30
2022-11-05T10:11:46.616Z,992.38
2022-11-05T10:12:46.622Z,992.38
2022-11-05T10:13:46.623Z,992.22
2022-11-05T10:14:46.601Z,992.37
2022-11-05T10:15:46.587Z,992.38
2022-11-05T10:16:46.613Z,992.36
2022-11-05T10:17:46.651Z,992.31
2022-11-05T10:18:46.614Z,992.21
2022-11-05T10:19:46.575Z,992.18
2022-11-05T10:20:46.585Z,992.31
2022-11-05T10:22:49.758Z,992.32
2022-11-05T10:23:46.557Z,992.33
2022-11-05T10:24:46.604Z,992.38
2022-11-05T10:25:46.539Z,992.23
2022-11-05T10:26:46.568Z,992.29
2022-11-05T10:27:46.560Z,992.32
2022-11-05T10:28:47.563Z,992.34
2022-11-05T10:29:46.563Z,992.36
2022-11-05T10:30:46.567Z,992.38
2022-11-05T10:31:46.566Z,992.41
2022-11-05T10:32:46.548Z,992.44
2022-11-05T10:33:46.546Z,992.38
2022-11-05T10:34:46.533Z,992.44
2022-11-05T10:35:46.503Z,992.40
2022-11-05T10:36:46.505Z,992.45
2022-11-05T10:37:46.488Z,992.43
2022-11-05T10:38:46.503Z,992.42
2022-11-05T10:39:46.501Z,992.34
2022-11-05T10:40:46.477Z,992.35
2022-11-05T10:41:46.475Z,992.38
2022-11-05T10:42:46.461Z,992.42
2022-11-05T10:43:46.805Z,992.40
2022-11-05T10:44:46.466Z,992.40
2022-11-05T10:45:46.443Z,992.47
2022-11-05T10:46:46.471Z,992.44
2022-11-05T10:47:46.438Z,992.43
2022-11-05T10:48:46.451Z,992.44
2022-11-05T10:49:46.436Z,992.44
2022-11-05T10:50:46.397Z,992.53
2022-11-05T10:51:46.438Z,992.47
2022-11-05T10:52:46.426Z,992.43
2022-11-05T10:53:46.420Z,992.49
2022-11-05T10:54:46.434Z,992.49
2022-11-05T10:55:46.415Z,992.50
2022-11-05T10:56:46.389Z,992.43
2022-11-05T10:57:46.372Z,992.50
2022-11-05T10:58:46.398Z,992.48
2022-11-05T10:59:46.465Z,992.53
2022-11-05T11:00:46.487Z,992.50
2022-11-05T11:01:46.582Z,992.44
2022-11-05T11:02:46.362Z,992.47
2022-11-05T11:03:46.385Z,992.47
2022-11-05T11:04:46.358Z,992.56
2022-11-05T11:05:46.334Z,992.52
2022-11-05T11:06:46.328Z,992.45
2022-11-05T11:07:46.321Z,992.41
2022-11-05T11:08:46.330Z,992.45
2022-11-05T11:09:46.326Z,992.37
2022-11-05T11:10:46.287Z,992.36
2022-11-05T11:11:46.315Z,992.39
2022-11-05T11:12:46.312Z,992.35
2022-11-05T11:13:46.286Z,992.50
2022-11-05T11:14:46.294Z,992.41
2022-11-05T11:15:46.314Z,992.41
2022-11-05T11:16:46.268Z,992.36
2022-11-05T11:17:46.271Z,992.41
2022-11-05T11:18:46.288Z,992.36
2022-11-05T11:19:46.345Z,992.46
2022-11-05T11:20:46.263Z,992.47
2022-11-05T11:21:46.241Z,992.42
2022-11-05T11:22:46.222Z,992.44
2022-11-05T11:23:46.234Z,992.44
2022-11-05T11:24:46.250Z,992.42
2022-11-05T11:25:46.217Z,992.38
2022-11-05T11:26:46.232Z,992.40
2022-11-05T11:27:46.229Z,992.41
2022-11-05T11:28:46.200Z,992.39
2022-11-05T11:29:49.434Z,992.35
2022-11-05T11:30:46.188Z,992.41
2022-11-05T11:31:46.177Z,992.35
2022-11-05T11:32:46.170Z,992.40
2022-11-05T11:33:46.168Z,992.33
2022-11-05T11:34:46.177Z,992.41
2022-11-05T11:35:46.256Z,992.34
2022-11-05T11:36:46.162Z,992.34
2022-11-05T11:37:46.135Z,992.39
2022-11-05T11:38:46.129Z,992.38
2022-11-05T11:39:46.127Z,992.39
2022-11-05T11:40:46.158Z,992.34
2022-11-05T11:41:46.131Z,992.26
2022-11-05T11:42:46.126Z,992.32
2022-11-05T11:43:46.112Z,992.31
2022-11-05T11:44:46.118Z,992.33
2022-11-05T11:45:46.096Z,992.32
2022-11-05T11:46:46.124Z,992.30
2022-11-05T11:47:46.108Z,992.34
2022-11-05T11:48:46.081Z,992.24
2022-11-05T11:49:46.103Z,992.29
2022-11-05T11:50:46.078Z,992.30
2022-11-05T11:51:49.999Z,992.33
2022-11-05T11:52:46.065Z,992.30
2022-11-05T11:53:46.064Z,992.27
2022-11-05T11:54:46.182Z,992.28
2022-11-05T11:56:18.325Z,992.27
2022-11-05T11:56:46.756Z,992.19
2022-11-05T11:57:46.146Z,992.23
2022-11-05T11:58:46.040Z,992.22
2022-11-05T12:00:07.672Z,992.30
2022-11-05T12:00:48.016Z,992.25
2022-11-05T12:01:46.075Z,992.25
2022-11-05T12:02:46.105Z,992.29
2022-11-05T12:03:46.015Z,992.25
2022-11-05T12:04:45.992Z,992.30
2022-11-05T12:05:46.031Z,992.34
2022-11-05T12:06:45.980Z,992.31
2022-11-05T12:07:45.980Z,992.32
2022-11-05T12:08:47.656Z,992.43
2022-11-05T12:09:45.967Z,992.38
2022-11-05T12:10:45.990Z,992.31
2022-11-05T12:11:45.954Z,992.33
2022-11-05T12:12:45.950Z,992.33
2022-11-05T12:13:45.965Z,992.30
2022-11-05T12:14:46.824Z,992.28
2022-11-05T12:15:45.930Z,992.24
2022-11-05T12:16:45.972Z,992.27
2022-11-05T12:17:45.929Z,992.20
2022-11-05T12:18:45.922Z,992.14
2022-11-05T12:19:45.927Z,992.27
2022-11-05T12:20:48.290Z,992.23
2022-11-05T12:21:52.961Z,992.21
2022-11-05T12:22:47.901Z,992.24
2022-11-05T12:23:46.023Z,992.20
2022-11-05T12:24:46.003Z,992.19
2022-11-05T12:25:45.872Z,992.21
2022-11-05T12:26:45.879Z,992.16
2022-11-05T12:27:45.874Z,992.16
2022-11-05T12:29:12.129Z,992.19
2022-11-05T12:29:47.896Z,992.13